Time;durP1;ratioP1;P1;durP2;ratioP2;P2;SDS_P1;SDS_P2;PMS_P1;PMS_P2;Temp;Humidity;BMP_temperature;BMP_pressure;BME280_temperature;BME280_humidity;BME280_pressure;Samples;Min_cycle;Max_cycle;Signal;HPM_P1;HPM_P2
2021/05/24 00:00:14;;;;;;;1.27;0.32;;;11.70;99.90;;;;;;4890837;29;20053;-63
2021/05/24 00:02:42;;;;;;;0.70;0.20;;;11.60;99.90;;;;;;4888868;29;20045;-63
2021/05/24 00:05:16;;;;;;;1.10;0.40;;;11.50;99.90;;;;;;4889657;29;20068;-63
2021/05/24 00:07:43;;;;;;;1.25;0.20;;;11.50;99.90;;;;;;4881348;29;20060;-63
2021/05/24 00:10:12;;;;;;;2.58;0.30;;;11.50;99.90;;;;;;4882318;29;20052;-63
2021/05/24 00:12:46;;;;;;;0.70;0.20;;;11.40;99.90;;;;;;4889165;29;20053;-63
2021/05/24 00:15:35;;;;;;;1.83;0.30;;;11.40;99.90;;;;;;4888618;29;20060;-63
2021/05/24 00:18:03;;;;;;;6.15;1.55;;;11.40;99.90;;;;;;4884576;29;20101;-63
2021/05/24 00:20:34;;;;;;;2.10;0.30;;;11.40;99.90;;;;;;4879663;29;20041;-64
2021/05/24 00:23:02;;;;;;;0.73;0.40;;;11.40;99.90;;;;;;4886463;29;20037;-63
2021/05/24 00:25:29;;;;;;;2.47;0.50;;;11.40;99.90;;;;;;4876735;29;20048;-63
2021/05/24 00:28:00;;;;;;;0.57;0.35;;;11.40;99.90;;;;;;4897448;29;20053;-63
2021/05/24 00:30:32;;;;;;;1.05;0.40;;;11.40;99.90;;;;;;4882634;29;20494;-63
2021/05/24 00:33:01;;;;;;;0.80;0.47;;;11.40;99.90;;;;;;4895562;29;20413;-63
2021/05/24 00:35:28;;;;;;;1.50;0.47;;;11.30;99.90;;;;;;4889125;29;20044;-63
2021/05/24 00:37:55;;;;;;;2.50;0.52;;;11.30;99.90;;;;;;4889091;29;20068;-63
2021/05/24 00:40:23;;;;;;;2.03;0.43;;;11.30;99.90;;;;;;4884437;29;20052;-63
2021/05/24 00:42:50;;;;;;;0.65;0.55;;;11.30;99.90;;;;;;4896648;29;20105;-63
2021/05/24 00:45:17;;;;;;;2.22;0.65;;;11.30;99.90;;;;;;4881987;29;20523;-63
2021/05/24 00:47:44;;;;;;;1.45;0.60;;;11.30;99.90;;;;;;4885214;29;20041;-63
2021/05/24 00:50:12;;;;;;;1.02;0.30;;;11.30;99.90;;;;;;4889392;29;20056;-63
2021/05/24 00:52:40;;;;;;;1.08;0.30;;;11.30;99.90;;;;;;4887079;29;20055;-63
2021/05/24 00:55:09;;;;;;;1.05;0.50;;;11.30;99.90;;;;;;4883398;29;20045;-63
2021/05/24 00:57:36;;;;;;;1.05;0.30;;;11.30;99.90;;;;;;4879379;29;20526;-63
2021/05/24 01:00:09;;;;;;;1.00;0.30;;;11.30;99.90;;;;;;4887295;29;20060;-63
2021/05/24 01:02:36;;;;;;;1.02;0.40;;;11.20;99.90;;;;;;4882658;29;20511;-63
2021/05/24 01:05:04;;;;;;;2.17;0.40;;;11.20;99.90;;;;;;4897268;29;20053;-63
2021/05/24 01:07:32;;;;;;;1.23;0.40;;;11.10;99.90;;;;;;4884192;29;20055;-63
2021/05/24 01:10:00;;;;;;;1.20;0.40;;;11.10;99.90;;;;;;4898686;29;20076;-63
2021/05/24 01:12:27;;;;;;;2.05;0.30;;;11.00;99.90;;;;;;4872701;29;20492;-63
2021/05/24 01:14:54;;;;;;;0.80;0.30;;;11.00;99.90;;;;;;4892950;29;20040;-63
2021/05/24 01:17:21;;;;;;;2.78;0.50;;;11.00;99.90;;;;;;4873005;29;20048;-63
2021/05/24 01:19:49;;;;;;;0.65;0.30;;;11.00;99.90;;;;;;4887625;29;20053;-63
2021/05/24 01:22:20;;;;;;;0.90;0.40;;;11.00;99.90;;;;;;4891927;29;20412;-63
2021/05/24 01:24:48;;;;;;;0.90;0.52;;;11.10;99.90;;;;;;4891517;29;20049;-63
2021/05/24 01:27:16;;;;;;;1.70;0.40;;;11.00;99.90;;;;;;4873310;29;20551;-64
2021/05/24 01:29:43;;;;;;;1.48;0.40;;;11.10;99.90;;;;;;4884898;29;20045;-63
2021/05/24 01:32:11;;;;;;;0.88;0.70;;;11.00;99.90;;;;;;4889827;29;20092;-63
2021/05/24 01:34:38;;;;;;;2.95;0.43;;;11.00;99.90;;;;;;4905182;29;20494;-63
2021/05/24 01:37:05;;;;;;;0.50;0.20;;;11.00;99.90;;;;;;4890295;29;20049;-63
2021/05/24 01:39:32;;;;;;;0.57;0.25;;;11.00;99.90;;;;;;4889364;29;20052;-63
2021/05/24 01:42:00;;;;;;;0.90;0.22;;;11.00;99.90;;;;;;4885788;29;20049;-63
2021/05/24 01:44:31;;;;;;;0.65;0.30;;;10.90;99.90;;;;;;4896134;29;20104;-63
2021/05/24 01:46:58;;;;;;;0.70;0.40;;;10.80;99.90;;;;;;4878965;29;20060;-63
2021/05/24 01:49:26;;;;;;;2.15;0.60;;;10.90;99.90;;;;;;4881396;29;20045;-63
2021/05/24 01:51:53;;;;;;;0.60;0.20;;;10.80;99.90;;;;;;4881601;29;21674;-63
2021/05/24 01:54:21;;;;;;;1.58;0.35;;;10.80;99.90;;;;;;4889053;29;20065;-63
2021/05/24 01:56:48;;;;;;;1.00;0.40;;;10.80;99.90;;;;;;4885382;29;20044;-63
2021/05/24 01:59:15;;;;;;;2.15;0.30;;;10.80;99.90;;;;;;4884862;29;20071;-63
2021/05/24 02:01:42;;;;;;;0.98;0.28;;;10.70;99.90;;;;;;4887066;29;20048;-62
2021/05/24 02:04:10;;;;;;;0.65;0.32;;;10.70;99.90;;;;;;4892721;29;20407;-63
2021/05/24 02:06:37;;;;;;;0.90;0.28;;;10.70;99.90;;;;;;4888943;29;20127;-63
2021/05/24 02:09:04;;;;;;;0.40;0.20;;;10.60;99.90;;;;;;4878759;29;20045;-63
2021/05/24 02:11:31;;;;;;;0.80;0.25;;;10.60;99.90;;;;;;4884024;29;20037;-63
2021/05/24 02:13:59;;;;;;;2.13;0.40;;;10.60;99.90;;;;;;4893512;29;20508;-63
2021/05/24 02:16:46;;;;;;;1.00;0.30;;;10.70;99.90;;;;;;4884622;29;20074;-63
2021/05/24 02:19:15;;;;;;;1.13;0.30;;;10.70;99.90;;;;;;4887410;29;20040;-63
2021/05/24 02:21:42;;;;;;;1.23;0.20;;;10.70;99.90;;;;;;4889057;29;20064;-63
2021/05/24 02:24:11;;;;;;;0.70;0.30;;;10.60;99.90;;;;;;4891720;29;20041;-63
2021/05/24 02:26:41;;;;;;;1.42;0.30;;;10.60;99.90;;;;;;4888421;29;20085;-63
2021/05/24 02:29:09;;;;;;;0.75;0.30;;;10.60;99.90;;;;;;4880313;29;20056;-63
2021/05/24 02:31:37;;;;;;;1.45;0.45;;;10.60;99.90;;;;;;4901866;29;20052;-63
2021/05/24 02:34:06;;;;;;;0.85;0.30;;;10.50;99.90;;;;;;4891226;29;20112;-63
2021/05/24 02:36:34;;;;;;;1.30;0.50;;;10.50;99.90;;;;;;4887505;29;20045;-63
2021/05/24 02:39:06;;;;;;;1.38;0.50;;;10.60;99.90;;;;;;4890364;29;20080;-63
2021/05/24 02:41:35;;;;;;;0.93;0.50;;;10.60;99.90;;;;;;4886943;29;20682;-63
2021/05/24 02:44:02;;;;;;;1.27;0.30;;;10.60;99.90;;;;;;4890576;29;20283;-63
2021/05/24 02:46:29;;;;;;;1.20;0.60;;;10.60;99.90;;;;;;4877778;29;20129;-63
2021/05/24 02:48:56;;;;;;;0.98;0.40;;;10.50;99.90;;;;;;4898742;29;20056;-63
2021/05/24 02:51:23;;;;;;;0.98;0.40;;;10.50;99.90;;;;;;4892769;29;20052;-63
2021/05/24 02:53:50;;;;;;;0.60;0.30;;;10.40;99.90;;;;;;4880870;29;20063;-63
2021/05/24 02:56:17;;;;;;;2.15;0.47;;;10.40;99.90;;;;;;4891841;29;20091;-63
2021/05/24 02:58:44;;;;;;;0.80;0.30;;;10.40;99.90;;;;;;4889204;29;20482;-63
2021/05/24 03:01:13;;;;;;;2.28;0.40;;;10.40;99.90;;;;;;4889936;29;20491;-63
2021/05/24 03:03:41;;;;;;;1.17;0.38;;;10.40;99.90;;;;;;4886493;29;20549;-63
2021/05/24 03:06:08;;;;;;;3.85;0.85;;;10.40;99.90;;;;;;4887171;29;20041;-63
2021/05/24 03:08:35;;;;;;;1.48;0.50;;;10.30;99.90;;;;;;4886591;29;20048;-63
2021/05/24 03:11:02;;;;;;;0.95;0.50;;;10.30;99.90;;;;;;4888558;29;20037;-63
2021/05/24 03:13:30;;;;;;;2.05;0.50;;;10.20;99.90;;;;;;4886788;29;20119;-63
2021/05/24 03:15:57;;;;;;;1.35;0.40;;;10.20;99.90;;;;;;4879397;29;20049;-63
2021/05/24 03:18:24;;;;;;;2.05;0.55;;;10.20;99.90;;;;;;4886684;29;20559;-63
2021/05/24 03:20:51;;;;;;;2.78;0.77;;;10.20;99.90;;;;;;4879929;29;20051;-63
2021/05/24 03:23:18;;;;;;;3.28;1.00;;;10.10;99.90;;;;;;4895934;29;20067;-63
2021/05/24 03:25:45;;;;;;;2.25;1.13;;;10.10;99.90;;;;;;4890649;29;20049;-63
2021/05/24 03:28:12;;;;;;;2.30;1.27;;;10.20;99.90;;;;;;4889983;29;20062;-63
2021/05/24 03:30:39;;;;;;;2.20;1.30;;;10.20;99.90;;;;;;4891174;29;20547;-63
2021/05/24 03:33:06;;;;;;;2.95;1.73;;;10.20;99.90;;;;;;4881656;29;20041;-63
2021/05/24 03:35:33;;;;;;;1.98;1.45;;;10.20;99.90;;;;;;4892019;29;20089;-63
2021/05/24 03:38:00;;;;;;;2.10;1.02;;;10.20;99.90;;;;;;4871424;29;20420;-63
2021/05/24 03:40:27;;;;;;;2.80;0.98;;;10.30;99.90;;;;;;4900444;29;20583;-63
2021/05/24 03:42:54;;;;;;;2.75;1.40;;;10.30;99.90;;;;;;4865087;29;20067;-63
2021/05/24 03:45:23;;;;;;;1.58;0.75;;;10.40;99.90;;;;;;4886449;29;20100;-63
2021/05/24 03:47:50;;;;;;;1.70;0.85;;;10.30;99.90;;;;;;4883454;29;20519;-64
2021/05/24 03:50:18;;;;;;;2.15;0.77;;;10.30;99.90;;;;;;4870466;29;20092;-63
2021/05/24 03:52:46;;;;;;;1.77;0.82;;;10.40;99.90;;;;;;4893875;29;20052;-63
2021/05/24 03:55:17;;;;;;;1.85;0.73;;;10.40;99.90;;;;;;4894709;29;20053;-63
2021/05/24 03:57:47;;;;;;;1.35;0.70;;;10.40;99.90;;;;;;4884007;29;20041;-63
2021/05/24 04:00:15;;;;;;;2.55;1.00;;;10.40;99.90;;;;;;4879922;29;20493;-63
2021/05/24 04:02:43;;;;;;;2.92;0.65;;;10.50;99.90;;;;;;4885364;29;20070;-63
2021/05/24 04:07:54;;;;;;;1.58;0.70;;;10.60;99.90;;;;;;4889112;29;20041;-63
2021/05/24 04:10:25;;;;;;;1.30;0.73;;;10.60;99.90;;;;;;4899174;29;20104;-63
2021/05/24 04:12:52;;;;;;;2.88;0.98;;;10.60;99.90;;;;;;4899393;29;20048;-63
2021/05/24 04:15:19;;;;;;;2.80;1.45;;;10.70;99.90;;;;;;4897571;29;20049;-63
2021/05/24 04:17:48;;;;;;;2.70;1.45;;;10.70;99.90;;;;;;4885662;29;20047;-63
2021/05/24 04:20:16;;;;;;;4.22;1.80;;;10.80;99.90;;;;;;4863762;29;20108;-63
2021/05/24 04:22:44;;;;;;;2.85;1.45;;;10.90;99.90;;;;;;4884338;29;20052;-63
2021/05/24 04:25:12;;;;;;;8.40;1.83;;;11.00;99.90;;;;;;4881443;29;20105;-63
2021/05/24 04:27:39;;;;;;;4.78;2.13;;;11.10;99.90;;;;;;4899277;29;20059;-63
2021/05/24 04:30:08;;;;;;;6.05;2.88;;;11.20;99.90;;;;;;4893009;29;20048;-63
2021/05/24 04:32:36;;;;;;;8.45;2.70;;;11.20;99.90;;;;;;4881539;29;20088;-63
2021/05/24 04:35:04;;;;;;;4.95;2.65;;;11.30;99.90;;;;;;4897211;29;20044;-63
2021/05/24 04:37:31;;;;;;;4.55;2.55;;;11.30;99.90;;;;;;4878853;29;20515;-63
2021/05/24 04:39:59;;;;;;;3.90;1.80;;;11.40;99.90;;;;;;4888436;29;20523;-63
2021/05/24 04:42:26;;;;;;;3.63;1.73;;;11.40;99.90;;;;;;4893170;29;20074;-64
2021/05/24 04:44:53;;;;;;;4.22;1.70;;;11.40;99.90;;;;;;4891999;29;20059;-63
2021/05/24 04:47:20;;;;;;;3.75;1.80;;;11.50;99.90;;;;;;4887886;29;20504;-63
2021/05/24 04:49:50;;;;;;;2.85;1.48;;;11.50;99.90;;;;;;4892162;29;20048;-63
2021/05/24 04:52:18;;;;;;;2.85;1.40;;;11.60;99.90;;;;;;4900578;29;20128;-63
2021/05/24 04:54:46;;;;;;;2.88;1.33;;;11.70;99.90;;;;;;4887515;29;20040;-63
2021/05/24 04:57:13;;;;;;;3.47;2.03;;;11.70;99.90;;;;;;4890617;29;20061;-63
2021/05/24 04:59:40;;;;;;;4.93;2.58;;;11.80;99.90;;;;;;4885552;29;20048;-63
2021/05/24 05:02:07;;;;;;;1.75;1.30;;;11.80;99.90;;;;;;4889812;29;20052;-63
2021/05/24 05:04:35;;;;;;;3.20;1.67;;;11.80;99.90;;;;;;4894013;29;20045;-63
2021/05/24 05:07:02;;;;;;;4.00;1.40;;;11.80;99.90;;;;;;4890719;29;20044;-63
2021/05/24 05:09:29;;;;;;;2.70;1.30;;;11.90;99.90;;;;;;4891263;29;20064;-63
2021/05/24 05:11:56;;;;;;;3.13;1.45;;;11.90;99.90;;;;;;4894344;29;20084;-63
2021/05/24 05:14:23;;;;;;;2.55;1.50;;;11.90;99.90;;;;;;4890979;29;20487;-63
2021/05/24 05:16:51;;;;;;;2.40;1.50;;;12.00;99.90;;;;;;4897055;29;20177;-63
2021/05/24 05:19:18;;;;;;;3.85;1.60;;;12.10;99.90;;;;;;4879350;29;20072;-63
2021/05/24 05:21:49;;;;;;;4.10;1.40;;;12.20;99.90;;;;;;4893180;29;20041;-63
2021/05/24 05:24:17;;;;;;;3.80;1.48;;;12.30;99.90;;;;;;4891448;29;20492;-63
2021/05/24 05:26:45;;;;;;;3.28;1.13;;;12.30;99.90;;;;;;4897687;29;20488;-63
2021/05/24 05:29:12;;;;;;;2.63;1.40;;;12.40;99.90;;;;;;4891851;29;20028;-63
2021/05/24 05:31:39;;;;;;;1.80;0.82;;;12.50;99.90;;;;;;4887180;29;20131;-63
2021/05/24 05:34:06;;;;;;;3.10;1.13;;;12.50;99.90;;;;;;4887534;29;20041;-63
2021/05/24 05:36:34;;;;;;;2.90;1.15;;;12.50;99.90;;;;;;4885648;29;20460;-63
2021/05/24 05:39:02;;;;;;;4.55;1.20;;;12.60;99.90;;;;;;4879401;29;20065;-63
2021/05/24 05:41:29;;;;;;;3.15;0.90;;;12.60;99.90;;;;;;4897451;29;20100;-63
2021/05/24 05:43:56;;;;;;;2.25;0.63;;;12.60;99.90;;;;;;4895936;29;20052;-63
2021/05/24 05:46:24;;;;;;;2.05;0.93;;;12.70;99.90;;;;;;4891387;29;20053;-63
2021/05/24 05:48:51;;;;;;;3.13;1.02;;;12.80;99.90;;;;;;4888187;29;20052;-63
2021/05/24 05:51:18;;;;;;;1.33;0.68;;;12.80;99.90;;;;;;4886989;29;20036;-63
2021/05/24 05:53:45;;;;;;;1.52;0.63;;;12.80;99.90;;;;;;4880743;29;20049;-63
2021/05/24 05:56:12;;;;;;;1.58;0.65;;;12.90;99.90;;;;;;4897702;29;20567;-63
2021/05/24 05:58:39;;;;;;;3.38;0.60;;;12.90;99.90;;;;;;4886967;29;20041;-63
2021/05/24 06:01:06;;;;;;;1.77;0.75;;;13.00;99.90;;;;;;4891475;29;20076;-63
2021/05/24 06:03:33;;;;;;;0.95;0.40;;;13.00;99.90;;;;;;4888652;29;20057;-63
2021/05/24 06:06:01;;;;;;;1.48;0.82;;;13.00;99.90;;;;;;4886952;29;20109;-63
2021/05/24 06:08:28;;;;;;;1.48;0.35;;;13.00;99.90;;;;;;4891665;29;20096;-63
2021/05/24 06:10:58;;;;;;;1.13;0.52;;;13.10;99.90;;;;;;4890790;29;20049;-62
2021/05/24 06:13:26;;;;;;;1.48;0.40;;;13.10;99.90;;;;;;4891089;29;20037;-62
2021/05/24 06:15:54;;;;;;;1.10;0.40;;;13.10;99.90;;;;;;4887482;29;20048;-63
2021/05/24 06:18:21;;;;;;;27.63;8.35;;;13.20;99.90;;;;;;4901865;29;20045;-62
2021/05/24 06:20:48;;;;;;;31.23;9.63;;;13.20;99.90;;;;;;4886422;29;20041;-62
2021/05/24 06:23:16;;;;;;;4.28;0.93;;;13.30;99.90;;;;;;4894479;29;20052;-63
2021/05/24 06:25:45;;;;;;;1.73;0.50;;;13.30;99.90;;;;;;4873205;29;20063;-62
2021/05/24 06:28:12;;;;;;;2.78;0.50;;;13.40;99.90;;;;;;4888299;29;20052;-62
2021/05/24 06:30:40;;;;;;;2.20;0.60;;;13.50;99.90;;;;;;4896137;29;20052;-62
2021/05/24 06:33:07;;;;;;;1.10;0.45;;;13.50;99.90;;;;;;4890969;29;20939;-63
2021/05/24 06:35:35;;;;;;;2.13;0.40;;;13.60;99.90;;;;;;4891776;29;20047;-63
2021/05/24 06:38:03;;;;;;;1.20;0.57;;;13.60;99.90;;;;;;4879740;29;20084;-63
2021/05/24 06:40:31;;;;;;;2.00;0.45;;;13.70;99.90;;;;;;4888194;29;20448;-62
2021/05/24 06:42:58;;;;;;;3.50;0.40;;;13.70;99.90;;;;;;4887746;29;20052;-63
2021/05/24 06:45:25;;;;;;;1.42;0.40;;;13.80;99.90;;;;;;4885024;29;20479;-62
2021/05/24 06:47:52;;;;;;;0.60;0.30;;;13.80;99.90;;;;;;4888228;29;20048;-62
2021/05/24 06:50:19;;;;;;;0.73;0.38;;;13.80;99.90;;;;;;4889670;29;20080;-63
2021/05/24 06:52:46;;;;;;;1.02;0.57;;;13.90;99.90;;;;;;4891815;29;20468;-63
2021/05/24 06:55:15;;;;;;;1.30;0.55;;;13.90;99.90;;;;;;4882188;29;20481;-63
2021/05/24 06:57:42;;;;;;;2.10;0.40;;;14.00;99.90;;;;;;4885659;29;20048;-63
2021/05/24 07:00:11;;;;;;;3.63;0.55;;;14.00;99.90;;;;;;4897706;29;20037;-63
2021/05/24 07:02:41;;;;;;;1.00;0.30;;;14.10;99.90;;;;;;4889035;29;20064;-63
2021/05/24 07:05:08;;;;;;;1.70;0.40;;;14.10;99.90;;;;;;4887880;29;20500;-63
2021/05/24 07:07:36;;;;;;;1.63;0.60;;;14.10;99.90;;;;;;4884189;29;20045;-63
2021/05/24 07:10:05;;;;;;;1.67;0.20;;;14.20;99.90;;;;;;4896438;29;20048;-63
2021/05/24 07:12:32;;;;;;;1.45;0.43;;;14.30;99.90;;;;;;4902700;29;20044;-63
2021/05/24 07:15:02;;;;;;;1.58;0.55;;;14.30;99.90;;;;;;4889047;29;20053;-63
2021/05/24 07:17:30;;;;;;;0.47;0.22;;;14.40;99.90;;;;;;4902281;29;20071;-63
2021/05/24 07:19:58;;;;;;;2.17;0.20;;;14.40;99.90;;;;;;4882699;29;20051;-62
2021/05/24 07:22:25;;;;;;;0.98;0.20;;;14.40;99.90;;;;;;4886468;29;20053;-63
2021/05/24 07:24:53;;;;;;;1.38;0.40;;;14.50;99.90;;;;;;4876794;29;20057;-62
2021/05/24 07:27:20;;;;;;;1.45;0.30;;;14.50;99.90;;;;;;4880391;29;20036;-63
2021/05/24 07:29:48;;;;;;;1.58;0.28;;;14.50;99.90;;;;;;4884648;29;20128;-63
2021/05/24 07:32:15;;;;;;;1.13;0.20;;;14.50;99.90;;;;;;4885250;29;20085;-62
2021/05/24 07:34:43;;;;;;;0.75;0.28;;;14.50;99.90;;;;;;4889846;29;20488;-62
2021/05/24 07:37:10;;;;;;;0.90;0.50;;;14.60;99.90;;;;;;4884486;29;20109;-62
2021/05/24 07:39:38;;;;;;;2.35;0.57;;;14.60;99.90;;;;;;4884095;29;20071;-62
2021/05/24 07:42:05;;;;;;;1.88;0.40;;;14.70;99.90;;;;;;4889563;29;20436;-62
2021/05/24 07:44:33;;;;;;;1.25;0.25;;;14.70;99.90;;;;;;4899097;29;20056;-62
2021/05/24 07:47:01;;;;;;;1.00;0.30;;;14.80;99.90;;;;;;4885014;29;20056;-62
2021/05/24 07:49:29;;;;;;;1.90;0.50;;;14.80;99.90;;;;;;4889574;29;20045;-62
2021/05/24 07:51:56;;;;;;;0.95;0.30;;;14.90;99.90;;;;;;4898383;29;20090;-62
2021/05/24 07:54:23;;;;;;;2.08;0.55;;;14.90;99.90;;;;;;4889406;29;20057;-63
2021/05/24 07:56:51;;;;;;;1.98;0.20;;;14.90;99.90;;;;;;4880716;29;20045;-63
2021/05/24 07:59:18;;;;;;;0.70;0.20;;;15.10;99.90;;;;;;4877337;29;20045;-63
2021/05/24 08:01:45;;;;;;;1.38;0.20;;;15.10;99.90;;;;;;4892823;29;20045;-63
2021/05/24 08:04:12;;;;;;;2.78;0.63;;;15.10;99.90;;;;;;4891599;29;20056;-63
2021/05/24 08:06:39;;;;;;;0.98;0.30;;;15.20;99.90;;;;;;4889181;29;20048;-63
2021/05/24 08:09:07;;;;;;;2.85;0.68;;;15.20;99.90;;;;;;4888483;29;20052;-63
2021/05/24 08:11:34;;;;;;;0.70;0.20;;;15.20;99.90;;;;;;4886793;29;20047;-63
2021/05/24 08:14:01;;;;;;;0.75;0.20;;;15.30;99.90;;;;;;4894195;29;20040;-63
2021/05/24 08:16:29;;;;;;;3.13;0.70;;;15.30;99.90;;;;;;4901194;29;20056;-62
2021/05/24 08:18:56;;;;;;;1.67;0.43;;;15.40;99.90;;;;;;4891642;29;20469;-63
2021/05/24 08:21:23;;;;;;;1.40;0.22;;;15.40;99.90;;;;;;4893993;29;20181;-63
2021/05/24 08:23:50;;;;;;;1.42;0.47;;;15.40;99.90;;;;;;4883435;29;20049;-62
2021/05/24 08:26:17;;;;;;;2.42;0.50;;;15.50;99.90;;;;;;4886836;29;20822;-62
2021/05/24 08:28:44;;;;;;;2.92;0.57;;;15.50;99.90;;;;;;4892092;29;20052;-62
2021/05/24 08:31:11;;;;;;;2.55;0.40;;;15.50;99.90;;;;;;4891017;29;20100;-63
2021/05/24 08:33:39;;;;;;;2.13;0.40;;;15.50;99.90;;;;;;4889337;29;20040;-63
2021/05/24 08:36:06;;;;;;;2.05;0.40;;;15.50;99.90;;;;;;4881205;29;20045;-63
2021/05/24 08:38:33;;;;;;;2.92;0.20;;;15.60;99.90;;;;;;4889814;29;20048;-63
2021/05/24 08:41:07;;;;;;;0.30;0.10;;;15.60;99.90;;;;;;4894343;29;20108;-62
2021/05/24 08:43:35;;;;;;;1.45;0.30;;;15.70;99.90;;;;;;4895179;29;20052;-62
2021/05/24 08:46:03;;;;;;;1.83;0.20;;;15.80;99.80;;;;;;4887233;29;20851;-62
2021/05/24 08:48:30;;;;;;;1.85;0.15;;;15.90;99.10;;;;;;4887727;29;20059;-63
2021/05/24 08:50:58;;;;;;;1.70;0.15;;;15.90;98.80;;;;;;4888330;29;20059;-63
2021/05/24 08:53:27;;;;;;;4.55;0.20;;;15.90;99.40;;;;;;4883729;29;20626;-63
2021/05/24 08:55:54;;;;;;;0.50;0.20;;;15.90;99.00;;;;;;4890306;29;20041;-63
2021/05/24 08:58:22;;;;;;;0.30;0.13;;;16.00;98.90;;;;;;4882804;29;20049;-62
2021/05/24 09:00:50;;;;;;;0.90;0.20;;;16.00;98.40;;;;;;4895318;29;20045;-63
2021/05/24 09:03:31;;;;;;;0.93;0.15;;;16.00;98.10;;;;;;4890586;29;20096;-63
2021/05/24 09:06:01;;;;;;;1.55;0.10;;;16.00;98.30;;;;;;4888318;29;20041;-63
2021/05/24 09:08:38;;;;;;;0.60;0.20;;;16.10;97.80;;;;;;4885629;29;20089;-63
2021/05/24 09:11:26;;;;;;;1.10;0.20;;;16.10;97.70;;;;;;4888589;29;20573;-62
2021/05/24 09:13:53;;;;;;;0.85;0.28;;;16.10;97.80;;;;;;4889321;29;20051;-63
2021/05/24 09:16:27;;;;;;;0.30;0.10;;;16.20;97.10;;;;;;4887469;29;20052;-62
2021/05/24 09:19:21;;;;;;;0.80;0.30;;;16.30;96.50;;;;;;4886421;29;20048;-62
2021/05/24 09:21:58;;;;;;;0.75;0.57;;;16.20;97.10;;;;;;4904836;29;20060;-63
2021/05/24 09:24:38;;;;;;;1.05;0.10;;;16.10;97.50;;;;;;4904422;29;20048;-63
2021/05/24 09:27:22;;;;;;;2.75;0.20;;;16.20;97.80;;;;;;4889048;29;20040;-63
2021/05/24 09:29:53;;;;;;;1.02;0.40;;;16.30;95.40;;;;;;4894994;29;20104;-63
2021/05/24 09:32:25;;;;;;;1.50;0.50;;;16.50;95.60;;;;;;4888795;29;20394;-63
2021/05/24 09:34:54;;;;;;;2.45;0.40;;;16.60;94.40;;;;;;4889959;29;20519;-63
2021/05/24 09:37:36;;;;;;;2.13;0.55;;;16.70;95.10;;;;;;4892428;29;20051;-63
2021/05/24 09:40:21;;;;;;;1.80;0.20;;;16.60;96.10;;;;;;4895326;29;20052;-63
2021/05/24 09:42:54;;;;;;;2.60;0.30;;;16.60;95.00;;;;;;4888492;29;20056;-63
2021/05/24 09:45:25;;;;;;;0.40;0.15;;;16.70;94.40;;;;;;4884190;29;20511;-63
2021/05/24 09:47:54;;;;;;;1.60;0.30;;;16.80;94.20;;;;;;4888814;29;20771;-63
2021/05/24 09:50:21;;;;;;;2.05;0.40;;;16.80;94.50;;;;;;4891964;29;20052;-63
2021/05/24 09:52:49;;;;;;;3.03;0.55;;;16.70;94.80;;;;;;4891332;29;20043;-63
2021/05/24 09:55:24;;;;;;;1.15;0.22;;;16.80;94.80;;;;;;4861973;29;20065;-63
2021/05/24 09:57:52;;;;;;;1.67;0.52;;;16.70;94.50;;;;;;4864396;29;20048;-63
2021/05/24 10:00:23;;;;;;;1.95;0.20;;;16.60;95.10;;;;;;4884736;29;20125;-62
2021/05/24 10:02:53;;;;;;;1.13;0.30;;;16.60;94.10;;;;;;4895670;29;20388;-62
2021/05/24 10:05:20;;;;;;;1.55;0.55;;;16.60;94.10;;;;;;4889180;29;20053;-62
2021/05/24 10:07:48;;;;;;;2.10;0.50;;;16.60;94.50;;;;;;4889916;29;20096;-62
2021/05/24 10:10:15;;;;;;;1.35;0.20;;;16.60;93.60;;;;;;4888165;29;20080;-62
2021/05/24 10:12:42;;;;;;;1.15;0.20;;;16.60;93.40;;;;;;4885199;29;20045;-62
2021/05/24 10:15:14;;;;;;;1.75;0.10;;;16.70;92.80;;;;;;4890142;29;20048;-63
2021/05/24 10:17:50;;;;;;;0.98;0.20;;;16.60;93.30;;;;;;4901758;29;20052;-63
2021/05/24 10:20:17;;;;;;;0.10;0.00;;;16.70;91.90;;;;;;4885984;29;20085;-63
2021/05/24 10:22:46;;;;;;;1.00;0.10;;;16.70;90.40;;;;;;4891196;29;20589;-62
2021/05/24 10:25:13;;;;;;;0.30;0.10;;;16.70;90.30;;;;;;4891190;29;20045;-62
2021/05/24 10:27:40;;;;;;;0.50;0.10;;;16.70;88.70;;;;;;4886043;29;20048;-62
2021/05/24 10:30:09;;;;;;;0.28;0.10;;;16.80;89.00;;;;;;4894470;29;20069;-63
2021/05/24 10:32:37;;;;;;;3.30;0.10;;;16.80;87.80;;;;;;4891658;29;20037;-63
2021/05/24 10:35:38;;;;;;;0.75;0.10;;;16.80;89.10;;;;;;4885665;29;20055;-63
2021/05/24 10:38:27;;;;;;;5.57;0.17;;;16.80;90.00;;;;;;4890818;29;20061;-62
2021/05/24 10:41:09;;;;;;;0.20;0.00;;;16.90;90.70;;;;;;4872917;29;20152;-63
2021/05/24 10:43:55;;;;;;;0.90;0.13;;;16.90;91.70;;;;;;4887598;29;20072;-63
2021/05/24 10:46:29;;;;;;;0.80;0.30;;;16.90;91.10;;;;;;4898834;29;20144;-62
2021/05/24 10:48:59;;;;;;;1.70;0.30;;;17.00;90.20;;;;;;4905001;29;20425;-63
2021/05/24 10:51:51;;;;;;;1.30;0.30;;;17.00;90.90;;;;;;4887145;29;21007;-62
2021/05/24 10:54:22;;;;;;;0.85;0.20;;;16.90;90.70;;;;;;4881694;29;20122;-62
2021/05/24 10:57:01;;;;;;;1.95;0.30;;;17.00;90.30;;;;;;4884847;29;20489;-63
2021/05/24 10:59:46;;;;;;;1.58;0.20;;;17.10;90.10;;;;;;4879160;29;20056;-62
2021/05/24 11:02:34;;;;;;;0.63;0.13;;;17.10;90.40;;;;;;4877881;29;20512;-62
2021/05/24 11:05:07;;;;;;;1.55;0.22;;;17.10;90.20;;;;;;4883129;29;20077;-62
2021/05/24 11:07:44;;;;;;;0.77;0.20;;;17.10;89.20;;;;;;4898048;29;20058;-62
2021/05/24 11:10:17;;;;;;;1.63;0.10;;;17.10;89.60;;;;;;4878612;29;20052;-62
2021/05/24 11:12:54;;;;;;;0.40;0.10;;;17.00;89.60;;;;;;4882858;29;20599;-62
2021/05/24 11:15:30;;;;;;;1.27;0.10;;;17.00;90.10;;;;;;4889093;29;20693;-62
2021/05/24 11:18:03;;;;;;;0.30;0.10;;;16.90;89.40;;;;;;4882150;29;20045;-63
2021/05/24 11:20:38;;;;;;;0.30;0.10;;;16.90;89.00;;;;;;4885507;29;20556;-62
2021/05/24 11:26:18;;;;;;;0.40;0.10;;;17.00;89.80;;;;;;4901157;29;20084;-62
2021/05/24 11:28:59;;;;;;;0.82;0.10;;;17.10;89.00;;;;;;4884567;29;20606;-62
2021/05/24 11:31:34;;;;;;;0.28;0.10;;;17.10;90.00;;;;;;4889005;29;20388;-62
2021/05/24 11:34:04;;;;;;;0.20;0.10;;;17.10;89.40;;;;;;4887127;29;20044;-62
2021/05/24 11:36:40;;;;;;;1.30;0.70;;;17.10;90.20;;;;;;4835267;29;20543;-62
2021/05/24 11:39:12;;;;;;;0.50;0.13;;;17.10;90.80;;;;;;4877460;29;20064;-63
2021/05/24 11:42:01;;;;;;;1.05;0.10;;;17.00;90.70;;;;;;4882512;29;20048;-63
2021/05/24 11:44:39;;;;;;;0.70;0.20;;;17.00;90.50;;;;;;4876245;29;20048;-65
2021/05/24 11:47:13;;;;;;;0.30;0.10;;;16.90;91.50;;;;;;4888423;29;20060;-65
2021/05/24 11:49:59;;;;;;;0.35;0.10;;;16.90;91.90;;;;;;4888973;29;20052;-65
2021/05/24 11:52:33;;;;;;;1.42;0.22;;;16.90;91.10;;;;;;4884230;29;20037;-65
2021/05/24 11:55:01;;;;;;;;;;;16.80;91.50;;;;;;4894347;29;20052;-66
2021/05/24 11:57:35;;;;;;;0.63;0.10;;;16.80;91.00;;;;;;4883940;29;19932;-65
2021/05/24 12:00:09;;;;;;;0.32;0.10;;;16.70;90.50;;;;;;4888455;29;20037;-65
2021/05/24 12:02:42;;;;;;;2.88;0.20;;;16.70;90.70;;;;;;4883661;29;20131;-65
2021/05/24 12:05:10;;;;;;;1.45;0.43;;;16.60;91.00;;;;;;4882936;29;20045;-66
2021/05/24 12:07:37;;;;;;;1.33;0.13;;;16.70;90.80;;;;;;4882859;29;20045;-66
2021/05/24 12:10:06;;;;;;;0.45;0.10;;;16.60;89.40;;;;;;4879161;29;20071;-65
2021/05/24 12:12:38;;;;;;;0.60;0.28;;;16.60;89.80;;;;;;4887883;29;20527;-65
2021/05/24 12:15:15;;;;;;;0.10;0.08;;;16.60;90.10;;;;;;4892423;29;20055;-66
2021/05/24 12:17:52;;;;;;;1.27;0.30;;;16.60;90.40;;;;;;4873721;29;20048;-65
2021/05/24 12:20:22;;;;;;;1.13;0.10;;;16.60;90.90;;;;;;4888337;29;20072;-65
2021/05/24 12:22:52;;;;;;;0.90;0.10;;;16.70;90.60;;;;;;4883895;29;20057;-63
2021/05/24 12:25:20;;;;;;;0.50;0.10;;;16.80;90.50;;;;;;4884536;29;20053;-63
2021/05/24 12:27:51;;;;;;;3.70;0.10;;;16.80;90.00;;;;;;4887822;29;20064;-64
2021/05/24 12:30:31;;;;;;;0.43;0.17;;;16.80;89.40;;;;;;4884680;29;20044;-64
2021/05/24 12:33:09;;;;;;;1.75;0.20;;;16.90;89.80;;;;;;4880581;29;20045;-63
2021/05/24 12:35:40;;;;;;;0.60;0.47;;;16.80;89.80;;;;;;4886162;29;20049;-63
2021/05/24 12:38:32;;;;;;;1.17;0.10;;;16.90;90.30;;;;;;4884049;29;20579;-63
2021/05/24 12:41:01;;;;;;;;;;;16.90;90.00;;;;;;4881069;29;20063;-63
2021/05/24 12:43:29;;;;;;;0.50;0.10;;;16.90;90.50;;;;;;4881289;29;19934;-63
2021/05/24 12:45:56;;;;;;;0.63;0.10;;;16.90;90.00;;;;;;4886474;29;20049;-63
2021/05/24 12:48:40;;;;;;;0.50;0.10;;;16.80;90.10;;;;;;4878804;29;20045;-63
2021/05/24 12:51:15;;;;;;;0.50;0.10;;;16.90;90.40;;;;;;4884710;29;20871;-63
2021/05/24 12:53:52;;;;;;;0.85;0.20;;;16.80;90.90;;;;;;4872779;29;20068;-63
2021/05/24 12:56:19;;;;;;;1.20;0.20;;;16.80;91.90;;;;;;4881866;29;20111;-63
2021/05/24 12:58:46;;;;;;;1.13;0.40;;;16.70;92.70;;;;;;4883139;29;20049;-63
2021/05/24 13:01:28;;;;;;;0.25;0.10;;;16.70;92.60;;;;;;4883679;29;20852;-63
2021/05/24 13:04:00;;;;;;;1.23;0.20;;;16.70;92.10;;;;;;4901243;29;20546;-63
2021/05/24 13:06:27;;;;;;;0.82;0.10;;;16.70;92.50;;;;;;4885260;29;20346;-63